Time;durP1;ratioP1;P1;durP2;ratioP2;P2;SDS_P1;SDS_P2;PMS_P1;PMS_P2;Temp;Humidity;BMP_temperature;BMP_pressure;BME280_temperature;BME280_humidity;BME280_pressure;Samples;Min_cycle;Max_cycle;Signal;HPM_P1;HPM_P2
2023/01/18 05:55:08;;;;;;;;;;;;;;;5.25;70.06;94402.22;4250780;27;10400;-79
2023/01/18 05:57:11;;;;;;;;;;;;;;;5.59;69.25;94402.63;4241950;27;5679;-79
2023/01/18 05:59:14;;;;;;;;;;;;;;;5.86;68.73;94395.22;4252763;27;5662;-79
2023/01/18 06:01:17;;;;;;;;;;;;;;;6.09;68.58;94402.41;4242282;27;5890;-78
2023/01/18 06:03:20;;;;;;;;;;;;;;;6.25;67.96;94390.50;4241579;27;5782;-78
2023/01/18 06:05:25;;;;;;;;;;;;;;;6.38;67.92;94396.34;4240209;27;5818;-78
2023/01/18 06:07:27;;;;;;;;;;;;;;;6.49;67.82;94401.84;4239000;27;5762;-78
2023/01/18 06:09:30;;;;;;;;;;;;;;;6.59;67.53;94407.31;4244420;27;5655;-77
2023/01/18 06:11:35;;;;;;;;;;;;;;;6.65;67.31;94416.91;4237755;27;5828;-78
2023/01/18 06:13:38;;;;;;;;;;;;;;;6.71;67.04;94416.81;4240146;27;5651;-78
2023/01/18 06:15:42;;;;;;;;;;;;;;;6.76;67.16;94412.69;4235302;27;5668;-78
2023/01/18 06:17:45;;;;;;;;;;;;;;;6.79;67.01;94420.91;4241741;27;5699;-78
2023/01/18 06:19:48;;;;;;;;;;;;;;;6.83;67.06;94424.69;4248485;27;5658;-78
2023/01/18 06:21:52;;;;;;;;;;;;;;;6.88;66.69;94427.44;4241529;27;5675;-78
2023/01/18 06:23:54;;;;;;;;;;;;;;;6.90;66.91;94430.63;4239748;27;5691;-79
2023/01/18 06:25:58;;;;;;;;;;;;;;;6.93;66.58;94430.19;4242573;27;5877;-79
2023/01/18 06:28:03;;;;;;;;;;;;;;;6.96;66.68;94437.59;4241998;27;5658;-77
2023/01/18 06:30:09;;;;;;;;;;;;;;;6.99;66.43;94438.97;4239497;27;5664;-77
2023/01/18 06:32:12;;;;;;;;;;;;;;;6.99;66.41;94439.78;4242558;27;5639;-77
2023/01/18 06:34:15;;;;;;;;;;;;;;;6.99;66.52;94452.91;4241701;27;5878;-78
2023/01/18 06:36:18;;;;;;;;;;;;;;;6.98;66.32;94453.94;4251144;27;5682;-78
2023/01/18 06:38:21;;;;;;;;;;;;;;;6.96;66.22;94455.19;4244350;27;5933;-78
2023/01/18 06:40:23;;;;;;;;;;;;;;;6.92;66.31;94456.69;4235742;27;5754;-78
2023/01/18 06:42:26;;;;;;;;;;;;;;;6.84;66.21;94468.31;4244293;27;5651;-78
2023/01/18 06:44:30;;;;;;;;;;;;;;;6.79;66.24;94464.75;4231709;27;5738;-77
2023/01/18 06:46:33;;;;;;;;;;;;;;;6.74;66.16;94469.91;4232279;28;5715;-79
2023/01/18 06:48:36;;;;;;;;;;;;;;;6.72;65.99;94467.50;4230301;27;5664;-79
2023/01/18 06:50:38;;;;;;;;;;;;;;;6.63;66.04;94464.41;4236891;27;5728;-79
2023/01/18 06:52:42;;;;;;;;;;;;;;;6.57;66.16;94483.69;4251430;27;5711;-79
2023/01/18 06:54:45;;;;;;;;;;;;;;;6.58;66.08;94484.47;4230582;27;5620;-78
2023/01/18 06:56:48;;;;;;;;;;;;;;;6.58;66.13;94484.47;4237272;28;5643;-78
2023/01/18 06:58:51;;;;;;;;;;;;;;;6.56;65.79;94484.69;4223802;28;5747;-78
2023/01/18 07:00:59;;;;;;;;;;;;;;;6.58;66.01;94489.72;4237600;28;5741;-78
2023/01/18 07:03:03;;;;;;;;;;;;;;;6.56;65.86;94492.56;4231817;28;6654;-78
2023/01/18 07:05:06;;;;;;;;;;;;;;;6.55;65.63;94498.03;4225572;28;5652;-79
2023/01/18 07:07:09;;;;;;;;;;;;;;;6.54;65.70;94493.81;4216847;28;5759;-77
2023/01/18 07:09:12;;;;;;;;;;;;;;;6.52;65.50;94490.63;4233089;28;5643;-78
2023/01/18 07:11:15;;;;;;;;;;;;;;;6.58;65.71;94498.41;4226305;28;5855;-78
2023/01/18 07:13:18;;;;;;;;;;;;;;;6.59;65.11;94497.38;4217078;28;5684;-77
2023/01/18 07:15:21;;;;;;;;;;;;;;;6.50;65.17;94503.97;4218869;28;5681;-79
2023/01/18 07:17:26;;;;;;;;;;;;;;;6.38;65.27;94503.94;4230826;28;5801;-78
2023/01/18 07:19:28;;;;;;;;;;;;;;;6.32;65.53;94510.06;4234047;28;5651;-79
2023/01/18 07:21:31;;;;;;;;;;;;;;;6.32;65.71;94507.44;4237211;28;5654;-78
2023/01/18 07:23:36;;;;;;;;;;;;;;;6.35;65.68;94504.38;4238653;28;5830;-78
2023/01/18 07:25:38;;;;;;;;;;;;;;;6.47;65.57;94508.88;4233928;28;5656;-79
2023/01/18 07:27:42;;;;;;;;;;;;;;;6.38;65.08;94516.25;4229413;28;5151;-78
2023/01/18 07:29:45;;;;;;;;;;;;;;;6.24;65.40;94517.44;4235115;28;5674;-78
2023/01/18 07:31:51;;;;;;;;;;;;;;;6.28;65.53;94526.47;4228599;28;5667;-78
2023/01/18 07:33:55;;;;;;;;;;;;;;;6.26;65.51;94518.03;4225840;28;5829;-78
2023/01/18 07:36:00;;;;;;;;;;;;;;;6.22;65.39;94528.13;4228716;28;5643;-79
2023/01/18 07:38:03;;;;;;;;;;;;;;;6.16;65.24;94523.78;4221032;28;5672;-79
2023/01/18 07:40:09;;;;;;;;;;;;;;;6.13;65.60;94534.72;4224228;28;5671;-79
2023/01/18 07:42:11;;;;;;;;;;;;;;;6.20;65.38;94527.56;4220058;28;5790;-81
2023/01/18 07:44:14;;;;;;;;;;;;;;;6.13;65.39;94534.72;4222509;28;5912;-79
2023/01/18 07:46:18;;;;;;;;;;;;;;;5.93;65.43;94536.78;4227881;28;6164;-79
2023/01/18 07:48:22;;;;;;;;;;;;;;;5.77;65.50;94536.28;4225193;28;5780;-79
2023/01/18 07:50:26;;;;;;;;;;;;;;;5.70;65.60;94537.41;4230519;28;5722;-80
2023/01/18 07:52:30;;;;;;;;;;;;;;;5.64;65.80;94546.91;4229761;28;5655;-79
2023/01/18 07:54:33;;;;;;;;;;;;;;;5.63;65.85;94544.53;4228449;28;5686;-78
2023/01/18 07:56:36;;;;;;;;;;;;;;;5.66;65.68;94551.94;4222322;28;5838;-79
2023/01/18 07:58:40;;;;;;;;;;;;;;;5.76;65.59;94552.25;4221433;28;5656;-80
2023/01/18 08:00:43;;;;;;;;;;;;;;;5.83;65.66;94550.38;4216558;28;5668;-78
2023/01/18 08:02:50;;;;;;;;;;;;;;;5.96;65.46;94554.69;4221152;28;5684;-79
2023/01/18 08:04:53;;;;;;;;;;;;;;;6.08;65.58;94558.19;4223602;28;5679;-79
2023/01/18 08:06:58;;;;;;;;;;;;;;;6.12;65.32;94554.91;4226676;28;5785;-79
2023/01/18 08:09:01;;;;;;;;;;;;;;;6.18;65.20;94557.66;4233552;28;5774;-79
2023/01/18 08:11:06;;;;;;;;;;;;;;;6.23;65.36;94569.13;4223875;28;5683;-79
2023/01/18 08:13:09;;;;;;;;;;;;;;;6.25;65.20;94572.31;4227955;28;5746;-79
2023/01/18 08:15:12;;;;;;;;;;;;;;;6.27;65.19;94578.16;4220321;28;5656;-78
2023/01/18 08:17:15;;;;;;;;;;;;;;;6.30;64.97;94574.28;4218228;28;5672;-77
2023/01/18 08:19:25;;;;;;;;;;;;;;;6.24;65.01;94578.59;4220711;28;5994;-76
2023/01/18 08:21:30;;;;;;;;;;;;;;;6.24;65.14;94575.97;4219836;28;5687;-76
2023/01/18 08:23:36;;;;;;;;;;;;;;;6.32;65.28;94590.59;4223448;28;5818;-77
2023/01/18 08:25:39;;;;;;;;;;;;;;;6.41;65.34;94594.53;4224807;28;5789;-77
2023/01/18 08:27:42;;;;;;;;;;;;;;;6.47;64.94;94588.41;4230992;28;5655;-77
2023/01/18 08:29:45;;;;;;;;;;;;;;;6.45;64.96;94598.31;4218897;28;5660;-68
2023/01/18 08:31:51;;;;;;;;;;;;;;;6.48;65.13;94604.97;4226477;28;5681;-70
2023/01/18 08:33:54;;;;;;;;;;;;;;;6.41;64.97;94597.97;4233740;28;5639;-69
2023/01/18 08:35:57;;;;;;;;;;;;;;;6.28;65.03;94602.56;4228736;28;5660;-69
2023/01/18 08:38:00;;;;;;;;;;;;;;;6.23;65.24;94602.41;4234433;28;5742;-70
2023/01/18 08:40:06;;;;;;;;;;;;;;;6.25;65.25;94609.06;4235132;28;5683;-69
2023/01/18 08:42:11;;;;;;;;;;;;;;;6.16;65.16;94604.31;4219550;28;5666;-69
2023/01/18 08:44:16;;;;;;;;;;;;;;;6.00;65.15;94592.56;4234449;28;6644;-69
2023/01/18 08:46:20;;;;;;;;;;;;;;;5.99;65.23;94606.69;4226038;28;5795;-70
2023/01/18 08:48:23;;;;;;;;;;;;;;;5.97;65.24;94612.16;4224338;28;5668;-70
2023/01/18 08:50:26;;;;;;;;;;;;;;;6.00;65.49;94614.38;4229470;28;5730;-69
2023/01/18 08:52:30;;;;;;;;;;;;;;;6.12;65.27;94614.47;4226429;28;5667;-69
2023/01/18 08:54:33;;;;;;;;;;;;;;;6.14;65.11;94625.53;4234475;28;5647;-69
2023/01/18 08:56:37;;;;;;;;;;;;;;;6.17;65.11;94630.34;4235163;28;5833;-69
2023/01/18 08:58:39;;;;;;;;;;;;;;;6.25;65.03;94635.31;4221611;28;5823;-69
2023/01/18 09:00:42;;;;;;;;;;;;;;;6.13;65.05;94634.41;4223213;28;5646;-69
2023/01/18 09:02:47;;;;;;;;;;;;;;;6.09;65.14;94636.66;4234626;28;6017;-70
2023/01/18 09:04:52;;;;;;;;;;;;;;;6.02;65.08;94643.81;4233010;28;5643;-70
2023/01/18 09:06:55;;;;;;;;;;;;;;;5.99;65.33;94638.19;4227527;28;5680;-70
2023/01/18 09:08:59;;;;;;;;;;;;;;;6.04;65.12;94648.84;4217633;28;6823;-70
2023/01/18 09:11:02;;;;;;;;;;;;;;;6.08;65.20;94653.41;4234251;28;5655;-70
2023/01/18 09:13:06;;;;;;;;;;;;;;;6.09;65.06;94654.22;4217562;28;5699;-70
2023/01/18 09:15:09;;;;;;;;;;;;;;;6.15;65.13;94665.69;4226596;28;5635;-71
2023/01/18 09:17:13;;;;;;;;;;;;;;;6.23;64.95;94673.25;4233498;28;5825;-69
2023/01/18 09:19:15;;;;;;;;;;;;;;;6.11;65.07;94673.16;4227406;28;5647;-68
2023/01/18 09:21:19;;;;;;;;;;;;;;;6.09;65.15;94673.38;4232909;28;5643;-68
2023/01/18 09:23:24;;;;;;;;;;;;;;;6.15;65.26;94682.22;4234830;28;5912;-68
2023/01/18 09:25:26;;;;;;;;;;;;;;;6.21;65.13;94685.78;4233142;28;5746;-68
2023/01/18 09:27:29;;;;;;;;;;;;;;;6.20;64.75;94686.81;4221280;28;5184;-68
2023/01/18 09:29:34;;;;;;;;;;;;;;;6.18;64.94;94684.41;4229936;28;7729;-68
2023/01/18 09:31:37;;;;;;;;;;;;;;;6.28;64.80;94686.53;4234297;28;5638;-69
2023/01/18 09:33:41;;;;;;;;;;;;;;;6.38;64.86;94686.84;4225665;28;5764;-68
2023/01/18 09:35:54;;;;;;;;;;;;;;;6.48;64.78;94694.22;4227529;28;5759;-69
2023/01/18 09:37:57;;;;;;;;;;;;;;;6.54;64.80;94698.56;4231641;28;5725;-68
2023/01/18 09:40:01;;;;;;;;;;;;;;;6.56;64.76;94693.88;4234337;28;5627;-68
2023/01/18 09:42:04;;;;;;;;;;;;;;;6.61;64.76;94704.56;4234406;28;5730;-68
2023/01/18 09:44:10;;;;;;;;;;;;;;;6.64;64.96;94710.16;4234133;28;5796;-68
2023/01/18 09:46:19;;;;;;;;;;;;;;;6.65;64.74;94705.72;4224498;28;5671;-68
2023/01/18 09:48:29;;;;;;;;;;;;;;;6.64;64.89;94704.91;4216045;28;6296;-69
2023/01/18 09:50:38;;;;;;;;;;;;;;;6.69;64.50;94710.31;4229781;28;5651;-72
2023/01/18 09:52:48;;;;;;;;;;;;;;;6.61;64.62;94718.47;4229200;28;5939;-72
2023/01/18 09:54:57;;;;;;;;;;;;;;;6.56;64.78;94718.31;4228548;28;5664;-67
2023/01/18 09:57:08;;;;;;;;;;;;;;;6.60;64.68;94731.84;4222114;28;5742;-73
2023/01/18 09:59:21;;;;;;;;;;;;;;;6.60;64.63;94734.47;4223985;28;5647;-72
2023/01/18 10:01:30;;;;;;;;;;;;;;;6.50;64.75;94744.66;4215295;28;5761;-73
2023/01/18 10:03:43;;;;;;;;;;;;;;;6.43;64.62;94747.34;4216765;28;5660;-71
2023/01/18 10:05:52;;;;;;;;;;;;;;;6.44;64.69;94759.44;4216690;28;5950;-69
2023/01/18 10:08:02;;;;;;;;;;;;;;;6.40;64.31;94763.53;4220483;28;5144;-66
2023/01/18 10:10:06;;;;;;;;;;;;;;;6.33;64.51;94765.41;4219563;28;7723;-66
2023/01/18 10:12:20;;;;;;;;;;;;;;;6.17;64.42;94772.00;4218793;28;5902;-66
2023/01/18 10:14:35;;;;;;;;;;;;;;;5.92;64.47;94771.19;4215707;28;5747;-65
2023/01/18 10:16:40;;;;;;;;;;;;;;;5.82;64.75;94771.66;4218044;28;5862;-65
2023/01/18 10:18:47;;;;;;;;;;;;;;;5.61;64.90;94769.38;4219053;28;5798;-68
2023/01/18 10:20:52;;;;;;;;;;;;;;;5.57;65.03;94770.81;4217812;28;7762;-66
2023/01/18 10:22:59;;;;;;;;;;;;;;;5.62;65.06;94779.63;4222580;28;5651;-66
2023/01/18 10:25:06;;;;;;;;;;;;;;;5.61;65.23;94777.22;4226960;28;5677;-66
2023/01/18 10:27:21;;;;;;;;;;;;;;;5.67;65.31;94781.63;4206921;28;5693;-66
2023/01/18 10:29:40;;;;;;;;;;;;;;;5.74;65.34;94788.44;4213340;28;5654;-65
2023/01/18 10:31:57;;;;;;;;;;;;;;;5.82;65.32;94800.50;4206704;28;5686;-67
2023/01/18 10:34:03;;;;;;;;;;;;;;;5.90;65.34;94800.28;4216300;28;5923;-67
2023/01/18 10:36:11;;;;;;;;;;;;;;;5.97;65.44;94810.69;4211455;28;5840;-67
2023/01/18 10:38:18;;;;;;;;;;;;;;;5.99;65.31;94811.28;4213947;28;5697;-66
2023/01/18 10:40:22;;;;;;;;;;;;;;;6.01;65.63;94809.28;4214468;28;5616;-66
2023/01/18 10:42:29;;;;;;;;;;;;;;;6.02;65.54;94806.44;4217314;28;6410;-66
2023/01/18 10:44:32;;;;;;;;;;;;;;;6.03;65.63;94812.47;4210941;28;5824;-69
2023/01/18 10:46:35;;;;;;;;;;;;;;;6.05;65.60;94807.81;4213226;28;5712;-70
2023/01/18 10:48:44;;;;;;;;;;;;;;;6.04;65.75;94814.88;4205615;28;5689;-69
2023/01/18 10:50:49;;;;;;;;;;;;;;;6.06;65.66;94817.28;4215783;28;5855;-66
2023/01/18 10:52:55;;;;;;;;;;;;;;;6.13;65.67;94825.94;4214860;28;5659;-72
2023/01/18 10:55:00;;;;;;;;;;;;;;;6.15;65.69;94829.13;4211693;28;5701;-74
2023/01/18 10:57:05;;;;;;;;;;;;;;;6.06;65.62;94827.78;4215498;28;5666;-67
2023/01/18 10:59:25;;;;;;;;;;;;;;;6.04;65.66;94829.81;4229353;28;5814;-72
2023/01/18 11:01:34;;;;;;;;;;;;;;;6.06;65.80;94836.47;4227875;28;5729;-70
2023/01/18 11:03:46;;;;;;;;;;;;;;;5.98;65.88;94831.47;4221275;28;5662;-73
2023/01/18 11:05:50;;;;;;;;;;;;;;;5.97;65.79;94834.31;4217959;28;5137;-70
2023/01/18 11:08:14;;;;;;;;;;;;;;;5.95;65.77;94833.72;4221445;28;7687;-73
2023/01/18 11:10:25;;;;;;;;;;;;;;;5.93;65.79;94835.75;4218369;28;5662;-74
2023/01/18 11:12:40;;;;;;;;;;;;;;;5.79;66.13;94840.25;4217764;28;5684;-71
2023/01/18 11:14:43;;;;;;;;;;;;;;;5.79;66.25;94841.06;4224314;28;5601;-74
2023/01/18 11:17:00;;;;;;;;;;;;;;;5.77;65.94;94839.63;4225535;28;5769;-77
2023/01/18 11:19:16;;;;;;;;;;;;;;;5.77;66.19;94848.31;4223643;28;6624;-77
2023/01/18 11:21:20;;;;;;;;;;;;;;;5.74;66.14;94835.63;4219376;28;6578;-76
2023/01/18 11:23:30;;;;;;;;;;;;;;;5.69;66.21;94832.84;4223910;28;5651;-76
2023/01/18 11:25:40;;;;;;;;;;;;;;;5.54;66.35;94840.16;4220598;28;5606;-76
2023/01/18 11:27:46;;;;;;;;;;;;;;;5.61;66.77;94835.69;4220090;28;5664;-76
2023/01/18 11:29:50;;;;;;;;;;;;;;;5.53;66.38;94839.34;4226954;28;5672;-75
2023/01/18 11:32:00;;;;;;;;;;;;;;;5.49;66.56;94843.41;4220906;28;5823;-76
2023/01/18 11:34:21;;;;;;;;;;;;;;;5.51;66.77;94845.81;4210154;28;5675;-77
2023/01/18 11:36:37;;;;;;;;;;;;;;;5.51;66.57;94851.06;4225374;28;5662;-76
2023/01/18 11:38:43;;;;;;;;;;;;;;;5.58;66.83;94857.09;4223911;28;5792;-76
2023/01/18 11:40:47;;;;;;;;;;;;;;;5.69;66.91;94859.06;4225694;28;5673;-74
2023/01/18 11:42:53;;;;;;;;;;;;;;;5.78;66.74;94859.63;4222927;28;5763;-75
2023/01/18 11:45:21;;;;;;;;;;;;;;;5.84;66.64;94872.69;4222477;28;5741;-76
2023/01/18 11:47:31;;;;;;;;;;;;;;;5.88;66.80;94877.50;4225844;28;5348;-75
2023/01/18 11:49:47;;;;;;;;;;;;;;;5.92;66.67;94878.72;4227202;28;7680;-75
2023/01/18 11:51:57;;;;;;;;;;;;;;;5.90;66.56;94885.97;4221607;28;5811;-75
2023/01/18 11:54:07;;;;;;;;;;;;;;;5.83;66.92;94889.44;4222232;28;5695;-74
2023/01/18 11:56:20;;;;;;;;;;;;;;;5.87;67.08;94896.88;4229216;28;5761;-76
2023/01/18 11:58:27;;;;;;;;;;;;;;;5.87;66.90;94892.44;4228028;28;6525;-75
2023/01/18 12:00:41;;;;;;;;;;;;;;;5.91;67.24;94905.97;4227511;28;5642;-71
2023/01/18 12:02:58;;;;;;;;;;;;;;;5.97;67.17;94910.38;4219310;28;5829;-71
2023/01/18 12:05:35;;;;;;;;;;;;;;;6.04;66.95;94914.56;4220101;28;5745;-72
2023/01/18 12:07:48;;;;;;;;;;;;;;;6.11;66.93;94925.00;4222335;28;5729;-69
2023/01/18 12:09:56;;;;;;;;;;;;;;;6.07;66.97;94908.91;4222516;28;5762;-72
2023/01/18 12:12:14;;;;;;;;;;;;;;;6.11;66.78;94922.38;4217987;28;5691;-71
2023/01/18 12:14:40;;;;;;;;;;;;;;;6.13;66.92;94929.06;4217177;28;5862;-74
2023/01/18 12:16:56;;;;;;;;;;;;;;;6.14;66.94;94929.84;4217797;28;5680;-75
2023/01/18 12:19:28;;;;;;;;;;;;;;;6.18;67.14;94931.03;4224317;28;5724;-71
2023/01/18 12:21:44;;;;;;;;;;;;;;;6.18;67.07;94931.03;4218004;28;5915;-73
2023/01/18 12:24:00;;;;;;;;;;;;;;;6.22;67.02;94942.69;4220636;28;5789;-76
2023/01/18 12:26:27;;;;;;;;;;;;;;;6.24;67.21;94942.53;4215406;28;5664;-75
2023/01/18 12:28:44;;;;;;;;;;;;;;;6.23;67.07;94944.34;4211643;28;5966;-73
2023/01/18 12:31:01;;;;;;;;;;;;;;;6.27;67.06;94947.34;4222238;28;5647;-73
2023/01/18 12:33:18;;;;;;;;;;;;;;;6.28;67.05;94957.63;4218309;28;5912;-68
2023/01/18 12:35:43;;;;;;;;;;;;;;;6.29;67.18;94964.47;4220908;28;5620;-69
2023/01/18 12:37:58;;;;;;;;;;;;;;;6.33;67.29;94962.22;4225116;28;5656;-69
2023/01/18 12:40:29;;;;;;;;;;;;;;;6.36;67.12;94967.06;4223192;28;5858;-71
2023/01/18 12:42:46;;;;;;;;;;;;;;;6.38;67.08;94973.72;4220008;28;5679;-73
2023/01/18 12:45:18;;;;;;;;;;;;;;;6.42;66.84;94974.88;4221608;28;5674;-69
2023/01/18 12:47:33;;;;;;;;;;;;;;;6.46;66.65;94990.25;4208236;28;5832;-73
2023/01/18 12:49:40;;;;;;;;;;;;;;;6.42;66.81;94990.63;4215245;28;5735;-76
2023/01/18 12:51:45;;;;;;;;;;;;;;;6.43;66.88;94994.88;4222129;28;5662;-76
2023/01/18 12:53:54;;;;;;;;;;;;;;;6.49;66.82;95000.31;4211120;28;6343;-77
2023/01/18 12:56:03;;;;;;;;;;;;;;;6.50;67.00;95004.53;4217616;28;6528;-77
2023/01/18 12:58:14;;;;;;;;;;;;;;;6.51;67.02;95003.53;4218100;28;5803;-76
2023/01/18 13:00:23;;;;;;;;;;;;;;;6.47;67.01;95018.09;4219083;28;5665;-80
2023/01/18 13:02:39;;;;;;;;;;;;;;;6.50;67.02;95017.66;4215468;28;5693;-80
2023/01/18 13:04:47;;;;;;;;;;;;;;;6.49;66.82;95013.44;4210178;28;6551;-78
2023/01/18 13:06:55;;;;;;;;;;;;;;;6.48;66.95;95017.88;4217845;28;5761;-79
2023/01/18 13:09:04;;;;;;;;;;;;;;;6.49;66.83;95021.31;4220184;28;5758;-79
2023/01/18 13:11:14;;;;;;;;;;;;;;;6.48;66.65;95024.94;4217738;28;5938;-79
2023/01/18 13:13:22;;;;;;;;;;;;;;;6.41;66.62;95022.34;4217230;28;5667;-79
2023/01/18 13:15:36;;;;;;;;;;;;;;;6.37;66.63;95024.59;4227505;28;5666;-79
2023/01/18 13:17:46;;;;;;;;;;;;;;;6.32;66.39;95026.22;4223621;28;5730;-76
2023/01/18 13:19:57;;;;;;;;;;;;;;;6.29;66.35;95031.91;4231971;28;5749;-74
2023/01/18 13:22:10;;;;;;;;;;;;;;;6.34;66.35;95030.28;4215892;28;6186;-74
2023/01/18 13:24:25;;;;;;;;;;;;;;;6.41;66.41;95038.91;4219923;28;5770;-74
2023/01/18 13:26:30;;;;;;;;;;;;;;;6.48;66.43;95040.69;4234335;28;5643;-74
2023/01/18 13:28:33;;;;;;;;;;;;;;;6.51;66.14;95040.28;4229667;28;5680;-74
2023/01/18 13:30:51;;;;;;;;;;;;;;;6.53;66.19;95046.13;4230130;28;5091;-73
2023/01/18 13:32:56;;;;;;;;;;;;;;;6.56;66.25;95054.38;4226034;28;5454;-73
2023/01/18 13:35:01;;;;;;;;;;;;;;;6.59;66.12;95048.72;4233352;28;7148;-73
2023/01/18 13:37:41;;;;;;;;;;;;;;;6.64;66.00;95046.25;4222607;28;5646;-73
2023/01/18 13:39:47;;;;;;;;;;;;;;;6.69;65.87;95053.50;4226062;28;6476;-73
2023/01/18 13:42:23;;;;;;;;;;;;;;;6.69;66.07;95064.81;4234118;28;5647;-73
2023/01/18 13:44:36;;;;;;;;;;;;;;;6.70;65.96;95068.25;4216269;28;5679;-73
2023/01/18 13:46:41;;;;;;;;;;;;;;;6.72;66.07;95069.66;4219608;28;5771;-74
2023/01/18 13:48:51;;;;;;;;;;;;;;;6.73;65.88;95073.06;4209679;28;5778;-73
2023/01/18 13:50:56;;;;;;;;;;;;;;;6.74;65.74;95074.69;4229718;28;5758;-73
2023/01/18 13:53:20;;;;;;;;;;;;;;;6.80;65.76;95083.56;4216258;28;5683;-73
2023/01/18 13:55:29;;;;;;;;;;;;;;;6.84;65.47;95082.09;4201448;28;5685;-73
2023/01/18 13:57:35;;;;;;;;;;;;;;;6.84;65.67;95089.97;4208915;28;5696;-74
2023/01/18 13:59:41;;;;;;;;;;;;;;;6.84;65.79;95093.41;4217400;28;5680;-73
2023/01/18 14:01:48;;;;;;;;;;;;;;;6.88;65.58;95105.09;4208724;28;5660;-74
2023/01/18 14:03:54;;;;;;;;;;;;;;;6.90;65.66;95113.56;4207538;28;5708;-74
2023/01/18 14:05:57;;;;;;;;;;;;;;;6.93;65.56;95115.00;4202910;28;5713;-75
2023/01/18 14:08:03;;;;;;;;;;;;;;;6.95;65.30;95119.00;4191983;28;5707;-71
2023/01/18 14:10:21;;;;;;;;;;;;;;;6.95;65.35;95119.00;4198755;28;5697;-73
2023/01/18 14:12:46;;;;;;;;;;;;;;;6.98;65.32;95121.22;4192505;28;5871;-70
2023/01/18 14:14:53;;;;;;;;;;;;;;;6.99;65.23;95124.63;4193620;28;5697;-71
2023/01/18 14:17:00;;;;;;;;;;;;;;;7.01;65.21;95135.75;4198254;28;5685;-70
2023/01/18 14:19:14;;;;;;;;;;;;;;;6.99;65.19;95128.06;4199580;28;5753;-72
2023/01/18 14:21:24;;;;;;;;;;;;;;;7.01;65.28;95141.00;4190690;28;5892;-72
2023/01/18 14:23:40;;;;;;;;;;;;;;;6.99;65.16;95138.59;4195088;28;5685;-71
2023/01/18 14:25:55;;;;;;;;;;;;;;;6.96;64.96;95141.63;4195367;28;5701;-75
2023/01/18 14:28:08;;;;;;;;;;;;;;;6.96;65.05;95152.16;4196471;28;5714;-72
2023/01/18 14:30:24;;;;;;;;;;;;;;;6.96;65.07;95157.41;4202793;28;5681;-72
2023/01/18 14:32:35;;;;;;;;;;;;;;;6.94;64.97;95163.88;4195685;28;5706;-75
2023/01/18 14:34:41;;;;;;;;;;;;;;;6.93;64.65;95165.72;4202154;28;5888;-73
2023/01/18 14:36:44;;;;;;;;;;;;;;;6.89;64.71;95167.13;4196454;28;5701;-75
2023/01/18 14:38:47;;;;;;;;;;;;;;;6.86;64.57;95164.13;4190019;28;5703;-74
2023/01/18 14:40:54;;;;;;;;;;;;;;;6.84;64.37;95176.66;4191311;28;5706;-67
2023/01/18 14:42:59;;;;;;;;;;;;;;;6.83;64.45;95175.84;4187153;28;6527;-67
2023/01/18 14:45:06;;;;;;;;;;;;;;;6.81;63.98;95182.34;4197814;28;5722;-66
2023/01/18 14:47:14;;;;;;;;;;;;;;;6.82;64.19;95183.94;4188385;28;5781;-69
2023/01/18 14:49:29;;;;;;;;;;;;;;;6.79;63.94;95190.41;4173061;28;5693;-74
2023/01/18 14:51:33;;;;;;;;;;;;;;;6.78;63.70;95188.00;4196416;28;5703;-73
2023/01/18 14:53:46;;;;;;;;;;;;;;;6.79;63.55;95193.03;4196244;28;5715;-71
2023/01/18 14:56:06;;;;;;;;;;;;;;;6.77;63.34;95195.06;4210484;28;5783;-70
2023/01/18 14:58:13;;;;;;;;;;;;;;;6.70;63.23;95204.81;4214178;28;5697;-68
2023/01/18 15:00:19;;;;;;;;;;;;;;;6.55;63.25;95202.41;4211466;28;5827;-67
2023/01/18 15:02:26;;;;;;;;;;;;;;;6.40;63.04;95202.66;4206659;28;5749;-71
2023/01/18 15:04:31;;;;;;;;;;;;;;;6.36;63.01;95211.16;4213726;28;5589;-69
2023/01/18 15:06:38;;;;;;;;;;;;;;;6.23;62.57;95219.88;4209507;28;5664;-70
2023/01/18 15:08:44;;;;;;;;;;;;;;;6.28;62.94;95220.06;4211095;28;5865;-71
2023/01/18 15:10:48;;;;;;;;;;;;;;;6.23;62.51;95222.50;4213934;28;5797;-70
2023/01/18 15:12:56;;;;;;;;;;;;;;;6.20;62.60;95225.50;4209834;28;5680;-70
2023/01/18 15:15:06;;;;;;;;;;;;;;;6.24;62.39;95231.16;4211926;28;5888;-69
2023/01/18 15:17:20;;;;;;;;;;;;;;;6.32;62.27;95236.19;4214175;27;6477;-67
2023/01/18 15:19:32;;;;;;;;;;;;;;;6.30;61.77;95239.00;4206638;28;5689;-68
2023/01/18 15:21:35;;;;;;;;;;;;;;;6.30;61.70;95243.47;4216106;28;5852;-68
2023/01/18 15:23:38;;;;;;;;;;;;;;;6.30;61.67;95244.25;4212287;28;5697;-69
2023/01/18 15:25:42;;;;;;;;;;;;;;;6.24;61.38;95244.28;4214684;28;5688;-69
2023/01/18 15:27:49;;;;;;;;;;;;;;;6.12;61.40;95257.22;4220032;28;6406;-69
2023/01/18 15:29:54;;;;;;;;;;;;;;;6.18;61.30;95260.84;4208432;28;5701;-67
2023/01/18 15:32:02;;;;;;;;;;;;;;;6.20;61.41;95264.88;4212679;28;5908;-68
2023/01/18 15:34:08;;;;;;;;;;;;;;;6.17;61.20;95269.72;4220616;28;5770;-73
2023/01/18 15:36:11;;;;;;;;;;;;;;;6.01;61.00;95263.06;4223030;28;5667;-70
2023/01/18 15:38:14;;;;;;;;;;;;;;;5.93;61.19;95274.56;4208578;28;5801;-70
2023/01/18 15:40:26;;;;;;;;;;;;;;;5.91;61.07;95275.78;4210337;28;6377;-69
2023/01/18 15:42:33;;;;;;;;;;;;;;;5.84;60.91;95276.53;4217701;28;5688;-69
2023/01/18 15:44:42;;;;;;;;;;;;;;;5.87;60.60;95282.38;4227467;28;5671;-68
2023/01/18 15:46:45;;;;;;;;;;;;;;;5.86;60.58;95284.19;4213495;28;5693;-68
2023/01/18 15:48:50;;;;;;;;;;;;;;;5.82;60.42;95289.03;4210707;28;5886;-68
2023/01/18 15:50:56;;;;;;;;;;;;;;;5.69;60.27;95283.78;4203620;28;5840;-69
2023/01/18 15:53:10;;;;;;;;;;;;;;;5.65;60.28;95298.28;4215889;28;6360;-69
2023/01/18 15:55:26;;;;;;;;;;;;;;;5.68;60.21;95286.63;4213297;28;5743;-68
2023/01/18 15:57:29;;;;;;;;;;;;;;;5.75;60.12;95297.91;4209648;28;5719;-69
2023/01/18 15:59:32;;;;;;;;;;;;;;;5.83;59.67;95295.09;4212931;28;5646;-69
2023/01/18 16:01:35;;;;;;;;;;;;;;;5.71;59.69;95302.75;4212535;28;5681;-69
2023/01/18 16:03:40;;;;;;;;;;;;;;;5.58;59.42;95301.91;4210692;28;5726;-69
2023/01/18 16:05:43;;;;;;;;;;;;;;;5.46;59.68;95315.59;4207209;28;5825;-69
2023/01/18 16:07:48;;;;;;;;;;;;;;;5.45;59.49;95324.47;4213438;28;5639;-68
2023/01/18 16:10:08;;;;;;;;;;;;;;;5.43;59.41;95328.25;4212187;28;5693;-69
2023/01/18 16:12:11;;;;;;;;;;;;;;;5.50;59.44;95331.72;4222845;28;5845;-69
2023/01/18 16:14:29;;;;;;;;;;;;;;;5.36;59.20;95327.47;4218230;28;5676;-68
2023/01/18 16:16:36;;;;;;;;;;;;;;;5.38;59.28;95335.91;4211575;28;5904;-68
2023/01/18 16:18:42;;;;;;;;;;;;;;;5.34;59.12;95338.13;4210321;28;6555;-69
2023/01/18 16:20:46;;;;;;;;;;;;;;;5.35;59.06;95344.19;4215086;28;5685;-69
2023/01/18 16:22:53;;;;;;;;;;;;;;;5.33;58.81;95349.63;4219884;28;5735;-68
2023/01/18 16:25:00;;;;;;;;;;;;;;;5.39;58.84;95358.50;4213893;28;5668;-68
2023/01/18 16:27:09;;;;;;;;;;;;;;;5.41;58.80;95361.72;4209153;28;5812;-69
2023/01/18 16:29:13;;;;;;;;;;;;;;;5.35;58.76;95368.56;4214224;28;5840;-68
2023/01/18 16:31:16;;;;;;;;;;;;;;;5.38;58.77;95362.94;4210587;28;5679;-68
2023/01/18 16:33:20;;;;;;;;;;;;;;;5.37;58.63;95366.56;4205913;28;5812;-68
2023/01/18 16:35:23;;;;;;;;;;;;;;;5.44;58.61;95369.22;4223931;28;5695;-68
2023/01/18 16:37:26;;;;;;;;;;;;;;;5.48;58.28;95378.31;4226895;28;5830;-68
2023/01/18 16:39:31;;;;;;;;;;;;;;;5.50;58.23;95379.72;4218222;28;5662;-68
2023/01/18 16:41:34;;;;;;;;;;;;;;;5.40;58.10;95388.94;4216685;28;5786;-69
2023/01/18 16:43:37;;;;;;;;;;;;;;;5.34;58.03;95394.97;4228724;28;5639;-68
2023/01/18 16:45:40;;;;;;;;;;;;;;;5.30;58.04;95396.34;4221986;28;5638;-68
2023/01/18 16:47:43;;;;;;;;;;;;;;;5.22;58.13;95400.78;4216521;28;5672;-68
2023/01/18 16:49:46;;;;;;;;;;;;;;;5.11;57.95;95401.31;4218995;28;5657;-68
2023/01/18 16:51:49;;;;;;;;;;;;;;;5.16;58.10;95411.19;4207068;28;6354;-68
2023/01/18 16:53:53;;;;;;;;;;;;;;;5.07;57.92;95410.53;4216511;28;5827;-68
2023/01/18 16:55:57;;;;;;;;;;;;;;;5.00;57.96;95419.38;4213015;28;5680;-68
2023/01/18 16:57:59;;;;;;;;;;;;;;;5.07;57.92;95420.22;4215075;28;5688;-68
2023/01/18 17:00:15;;;;;;;;;;;;;;;4.99;57.68;95418.56;4216506;28;5674;-69
2023/01/18 17:02:18;;;;;;;;;;;;;;;4.93;57.74;95424.56;4213887;28;5627;-68
2023/01/18 17:04:21;;;;;;;;;;;;;;;5.02;57.52;95436.50;4228158;28;5662;-68
2023/01/18 17:06:25;;;;;;;;;;;;;;;5.09;57.33;95429.47;4220456;28;5759;-68
2023/01/18 17:08:28;;;;;;;;;;;;;;;5.08;57.29;95435.72;4231478;28;5701;-68
2023/01/18 17:10:36;;;;;;;;;;;;;;;5.05;57.18;95436.13;4226261;28;5770;-68
2023/01/18 17:12:40;;;;;;;;;;;;;;;5.09;57.14;95447.81;4216931;28;5700;-69
2023/01/18 17:14:44;;;;;;;;;;;;;;;5.16;56.96;95446.06;4215736;28;5675;-68
2023/01/18 17:16:48;;;;;;;;;;;;;;;5.02;56.96;95454.84;4227558;28;5839;-68